sensor_id;sensor_type;location;lat;lon;timestamp;P1;durP1;ratioP1;P2;durP2;ratioP2
32292;SDS011;43233;48.608;8.838;2023-01-08T00:01:57;12.77;;;8.27;;
32292;SDS011;43233;48.608;8.838;2023-01-08T00:04:23;11.17;;;8.67;;
32292;SDS011;43233;48.608;8.838;2023-01-08T00:06:49;11.97;;;9.63;;
32292;SDS011;43233;48.608;8.838;2023-01-08T00:09:14;18.20;;;9.00;;
32292;SDS011;43233;48.608;8.838;2023-01-08T00:11:40;16.80;;;9.70;;
32292;SDS011;43233;48.608;8.838;2023-01-08T00:14:06;13.53;;;9.30;;
32292;SDS011;43233;48.608;8.838;2023-01-08T00:16:32;12.43;;;9.23;;
32292;SDS011;43233;48.608;8.838;2023-01-08T00:18:58;13.10;;;8.90;;
32292;SDS011;43233;48.608;8.838;2023-01-08T00:21:23;12.93;;;8.63;;
32292;SDS011;43233;48.608;8.838;2023-01-08T00:23:49;10.77;;;8.10;;
32292;SDS011;43233;48.608;8.838;2023-01-08T00:26:15;14.63;;;9.17;;
32292;SDS011;43233;48.608;8.838;2023-01-08T00:28:40;12.23;;;9.10;;
32292;SDS011;43233;48.608;8.838;2023-01-08T00:31:06;14.97;;;9.03;;
32292;SDS011;43233;48.608;8.838;2023-01-08T00:33:34;10.27;;;8.13;;
32292;SDS011;43233;48.608;8.838;2023-01-08T00:36:05;12.90;;;8.83;;
32292;SDS011;43233;48.608;8.838;2023-01-08T00:38:35;10.50;;;8.43;;
32292;SDS011;43233;48.608;8.838;2023-01-08T00:41:02;13.70;;;9.47;;
32292;SDS011;43233;48.608;8.838;2023-01-08T00:43:28;12.37;;;9.17;;
32292;SDS011;43233;48.608;8.838;2023-01-08T00:45:54;14.67;;;10.23;;
32292;SDS011;43233;48.608;8.838;2023-01-08T00:48:20;12.27;;;8.50;;
32292;SDS011;43233;48.608;8.838;2023-01-08T00:50:47;14.53;;;9.27;;
32292;SDS011;43233;48.608;8.838;2023-01-08T00:53:13;13.40;;;9.80;;
32292;SDS011;43233;48.608;8.838;2023-01-08T00:55:39;19.17;;;11.37;;
32292;SDS011;43233;48.608;8.838;2023-01-08T00:58:05;13.50;;;9.40;;
32292;SDS011;43233;48.608;8.838;2023-01-08T01:00:30;14.10;;;9.30;;
32292;SDS011;43233;48.608;8.838;2023-01-08T01:02:56;13.60;;;10.00;;
32292;SDS011;43233;48.608;8.838;2023-01-08T01:05:22;14.80;;;9.97;;
32292;SDS011;43233;48.608;8.838;2023-01-08T01:07:47;15.40;;;10.37;;
32292;SDS011;43233;48.608;8.838;2023-01-08T01:10:13;14.13;;;9.73;;
32292;SDS011;43233;48.608;8.838;2023-01-08T01:12:40;12.63;;;8.50;;
32292;SDS011;43233;48.608;8.838;2023-01-08T01:15:07;17.23;;;10.43;;
32292;SDS011;43233;48.608;8.838;2023-01-08T01:17:36;13.70;;;10.53;;
32292;SDS011;43233;48.608;8.838;2023-01-08T01:20:03;13.67;;;9.50;;
32292;SDS011;43233;48.608;8.838;2023-01-08T01:22:29;12.80;;;9.23;;
32292;SDS011;43233;48.608;8.838;2023-01-08T01:24:56;11.77;;;9.00;;
32292;SDS011;43233;48.608;8.838;2023-01-08T01:27:23;12.87;;;8.93;;
32292;SDS011;43233;48.608;8.838;2023-01-08T01:29:50;12.60;;;9.20;;
32292;SDS011;43233;48.608;8.838;2023-01-08T01:32:16;14.77;;;10.00;;
32292;SDS011;43233;48.608;8.838;2023-01-08T01:34:41;12.57;;;9.03;;
32292;SDS011;43233;48.608;8.838;2023-01-08T01:37:08;10.83;;;8.17;;
32292;SDS011;43233;48.608;8.838;2023-01-08T01:39:36;13.80;;;8.47;;
32292;SDS011;43233;48.608;8.838;2023-01-08T01:42:02;11.47;;;8.57;;
32292;SDS011;43233;48.608;8.838;2023-01-08T01:44:46;14.13;;;8.80;;
32292;SDS011;43233;48.608;8.838;2023-01-08T01:47:19;13.10;;;8.90;;
32292;SDS011;43233;48.608;8.838;2023-01-08T01:49:59;12.50;;;9.20;;
32292;SDS011;43233;48.608;8.838;2023-01-08T01:52:37;13.13;;;9.20;;
32292;SDS011;43233;48.608;8.838;2023-01-08T01:55:10;12.33;;;9.23;;
32292;SDS011;43233;48.608;8.838;2023-01-08T01:57:38;11.60;;;8.93;;
32292;SDS011;43233;48.608;8.838;2023-01-08T02:00:06;11.27;;;8.97;;
32292;SDS011;43233;48.608;8.838;2023-01-08T02:02:33;11.67;;;9.10;;
32292;SDS011;43233;48.608;8.838;2023-01-08T02:04:59;10.80;;;8.17;;
32292;SDS011;43233;48.608;8.838;2023-01-08T02:10:12;12.70;;;9.77;;
32292;SDS011;43233;48.608;8.838;2023-01-08T02:12:46;12.33;;;8.87;;
32292;SDS011;43233;48.608;8.838;2023-01-08T02:15:37;13.10;;;9.47;;
32292;SDS011;43233;48.608;8.838;2023-01-08T02:18:28;15.93;;;9.83;;
32292;SDS011;43233;48.608;8.838;2023-01-08T02:23:45;15.50;;;8.80;;
32292;SDS011;43233;48.608;8.838;2023-01-08T02:26:32;14.77;;;10.20;;
32292;SDS011;43233;48.608;8.838;2023-01-08T02:29:02;10.70;;;7.57;;
32292;SDS011;43233;48.608;8.838;2023-01-08T02:31:34;10.93;;;8.53;;
32292;SDS011;43233;48.608;8.838;2023-01-08T02:34:03;10.87;;;8.50;;
32292;SDS011;43233;48.608;8.838;2023-01-08T02:36:30;14.00;;;9.10;;
32292;SDS011;43233;48.608;8.838;2023-01-08T02:44:44;14.23;;;7.80;;
32292;SDS011;43233;48.608;8.838;2023-01-08T02:47:38;9.40;;;7.00;;
32292;SDS011;43233;48.608;8.838;2023-01-08T02:55:40;7.77;;;6.07;;
32292;SDS011;43233;48.608;8.838;2023-01-08T02:58:10;13.83;;;6.80;;
32292;SDS011;43233;48.608;8.838;2023-01-08T03:00:37;8.00;;;7.20;;
32292;SDS011;43233;48.608;8.838;2023-01-08T03:03:11;8.53;;;6.57;;
32292;SDS011;43233;48.608;8.838;2023-01-08T03:05:45;10.37;;;7.70;;
32292;SDS011;43233;48.608;8.838;2023-01-08T03:08:17;8.73;;;7.30;;
32292;SDS011;43233;48.608;8.838;2023-01-08T03:10:44;8.67;;;6.70;;
32292;SDS011;43233;48.608;8.838;2023-01-08T03:13:47;11.20;;;7.20;;
32292;SDS011;43233;48.608;8.838;2023-01-08T03:16:23;8.63;;;7.40;;
32292;SDS011;43233;48.608;8.838;2023-01-08T03:19:02;10.50;;;7.57;;
32292;SDS011;43233;48.608;8.838;2023-01-08T03:21:33;9.33;;;6.87;;
32292;SDS011;43233;48.608;8.838;2023-01-08T03:24:01;13.27;;;9.20;;
32292;SDS011;43233;48.608;8.838;2023-01-08T03:26:28;11.17;;;8.17;;
32292;SDS011;43233;48.608;8.838;2023-01-08T03:28:57;11.67;;;8.10;;
32292;SDS011;43233;48.608;8.838;2023-01-08T03:31:23;11.00;;;7.77;;
32292;SDS011;43233;48.608;8.838;2023-01-08T03:33:51;8.80;;;7.40;;
32292;SDS011;43233;48.608;8.838;2023-01-08T03:36:20;7.97;;;6.80;;
32292;SDS011;43233;48.608;8.838;2023-01-08T03:39:32;16.47;;;8.93;;
32292;SDS011;43233;48.608;8.838;2023-01-08T03:41:46;13.87;;;7.97;;
32292;SDS011;43233;48.608;8.838;2023-01-08T03:44:13;12.10;;;8.57;;
32292;SDS011;43233;48.608;8.838;2023-01-08T03:46:40;13.97;;;8.30;;
32292;SDS011;43233;48.608;8.838;2023-01-08T03:49:11;11.83;;;7.90;;
32292;SDS011;43233;48.608;8.838;2023-01-08T03:51:41;10.23;;;7.30;;
32292;SDS011;43233;48.608;8.838;2023-01-08T03:54:10;14.77;;;8.30;;
32292;SDS011;43233;48.608;8.838;2023-01-08T03:56:39;11.83;;;8.90;;
32292;SDS011;43233;48.608;8.838;2023-01-08T03:59:04;13.40;;;9.47;;
32292;SDS011;43233;48.608;8.838;2023-01-08T04:01:30;9.73;;;8.30;;
32292;SDS011;43233;48.608;8.838;2023-01-08T04:03:55;10.70;;;8.20;;
32292;SDS011;43233;48.608;8.838;2023-01-08T04:06:22;10.67;;;7.90;;
32292;SDS011;43233;48.608;8.838;2023-01-08T04:08:47;8.70;;;6.93;;
32292;SDS011;43233;48.608;8.838;2023-01-08T04:11:13;9.63;;;6.90;;
32292;SDS011;43233;48.608;8.838;2023-01-08T04:13:39;10.30;;;7.23;;
32292;SDS011;43233;48.608;8.838;2023-01-08T04:16:04;7.87;;;6.30;;
32292;SDS011;43233;48.608;8.838;2023-01-08T04:18:30;10.83;;;5.70;;
32292;SDS011;43233;48.608;8.838;2023-01-08T04:20:58;6.17;;;5.40;;
32292;SDS011;43233;48.608;8.838;2023-01-08T04:23:25;5.73;;;5.20;;
32292;SDS011;43233;48.608;8.838;2023-01-08T04:25:51;6.10;;;5.03;;
32292;SDS011;43233;48.608;8.838;2023-01-08T04:28:17;5.00;;;4.57;;
32292;SDS011;43233;48.608;8.838;2023-01-08T04:30:43;5.23;;;4.53;;
32292;SDS011;43233;48.608;8.838;2023-01-08T04:33:09;5.67;;;4.00;;
32292;SDS011;43233;48.608;8.838;2023-01-08T04:35:35;4.17;;;3.87;;
32292;SDS011;43233;48.608;8.838;2023-01-08T04:38:00;4.53;;;3.60;;
32292;SDS011;43233;48.608;8.838;2023-01-08T04:40:26;6.80;;;4.37;;
32292;SDS011;43233;48.608;8.838;2023-01-08T04:42:52;3.77;;;3.47;;
32292;SDS011;43233;48.608;8.838;2023-01-08T04:45:18;3.73;;;3.37;;
32292;SDS011;43233;48.608;8.838;2023-01-08T04:47:43;8.23;;;3.93;;
32292;SDS011;43233;48.608;8.838;2023-01-08T04:50:09;3.50;;;3.20;;
32292;SDS011;43233;48.608;8.838;2023-01-08T04:52:35;2.87;;;2.67;;
32292;SDS011;43233;48.608;8.838;2023-01-08T04:55:01;4.10;;;2.70;;
32292;SDS011;43233;48.608;8.838;2023-01-08T04:57:26;8.23;;;2.67;;
32292;SDS011;43233;48.608;8.838;2023-01-08T04:59:52;3.00;;;2.70;;
32292;SDS011;43233;48.608;8.838;2023-01-08T05:02:18;2.53;;;2.33;;
32292;SDS011;43233;48.608;8.838;2023-01-08T05:04:43;2.30;;;2.20;;
32292;SDS011;43233;48.608;8.838;2023-01-08T05:07:09;2.57;;;2.30;;
32292;SDS011;43233;48.608;8.838;2023-01-08T05:09:35;2.20;;;2.10;;
32292;SDS011;43233;48.608;8.838;2023-01-08T05:12:00;2.33;;;2.13;;
32292;SDS011;43233;48.608;8.838;2023-01-08T05:14:26;2.37;;;2.17;;
32292;SDS011;43233;48.608;8.838;2023-01-08T05:16:52;2.30;;;2.20;;
32292;SDS011;43233;48.608;8.838;2023-01-08T05:19:20;2.37;;;2.17;;
32292;SDS011;43233;48.608;8.838;2023-01-08T05:21:45;2.07;;;1.97;;
32292;SDS011;43233;48.608;8.838;2023-01-08T05:24:11;1.87;;;1.77;;
32292;SDS011;43233;48.608;8.838;2023-01-08T05:26:37;2.27;;;2.17;;
32292;SDS011;43233;48.608;8.838;2023-01-08T05:29:02;2.40;;;1.80;;
32292;SDS011;43233;48.608;8.838;2023-01-08T05:31:28;1.73;;;1.63;;
32292;SDS011;43233;48.608;8.838;2023-01-08T05:33:56;1.90;;;1.60;;
32292;SDS011;43233;48.608;8.838;2023-01-08T05:36:22;1.83;;;1.77;;
32292;SDS011;43233;48.608;8.838;2023-01-08T05:38:48;3.03;;;2.17;;
32292;SDS011;43233;48.608;8.838;2023-01-08T05:41:13;2.00;;;1.90;;
32292;SDS011;43233;48.608;8.838;2023-01-08T05:43:39;2.07;;;1.83;;
32292;SDS011;43233;48.608;8.838;2023-01-08T05:46:05;2.40;;;2.20;;
32292;SDS011;43233;48.608;8.838;2023-01-08T05:48:31;1.70;;;1.60;;
32292;SDS011;43233;48.608;8.838;2023-01-08T05:50:59;2.50;;;1.70;;
32292;SDS011;43233;48.608;8.838;2023-01-08T05:53:25;1.90;;;1.77;;
32292;SDS011;43233;48.608;8.838;2023-01-08T05:55:51;1.60;;;1.50;;
32292;SDS011;43233;48.608;8.838;2023-01-08T05:58:16;2.07;;;1.80;;
32292;SDS011;43233;48.608;8.838;2023-01-08T06:00:43;3.90;;;1.53;;
32292;SDS011;43233;48.608;8.838;2023-01-08T06:03:09;1.80;;;1.70;;
32292;SDS011;43233;48.608;8.838;2023-01-08T06:05:35;3.23;;;1.90;;
32292;SDS011;43233;48.608;8.838;2023-01-08T06:08:01;2.00;;;1.90;;
32292;SDS011;43233;48.608;8.838;2023-01-08T06:10:26;2.70;;;2.50;;
32292;SDS011;43233;48.608;8.838;2023-01-08T06:12:53;2.50;;;1.70;;
32292;SDS011;43233;48.608;8.838;2023-01-08T06:15:19;1.73;;;1.63;;
32292;SDS011;43233;48.608;8.838;2023-01-08T06:17:45;1.87;;;1.77;;
32292;SDS011;43233;48.608;8.838;2023-01-08T06:20:11;1.90;;;1.80;;
32292;SDS011;43233;48.608;8.838;2023-01-08T06:22:36;2.33;;;1.70;;
32292;SDS011;43233;48.608;8.838;2023-01-08T06:25:02;2.10;;;1.80;;
32292;SDS011;43233;48.608;8.838;2023-01-08T06:27:28;1.70;;;1.60;;
32292;SDS011;43233;48.608;8.838;2023-01-08T06:29:54;2.07;;;1.97;;
32292;SDS011;43233;48.608;8.838;2023-01-08T06:32:20;1.93;;;1.70;;
32292;SDS011;43233;48.608;8.838;2023-01-08T06:34:45;2.07;;;1.87;;
32292;SDS011;43233;48.608;8.838;2023-01-08T06:37:11;2.77;;;2.10;;
32292;SDS011;43233;48.608;8.838;2023-01-08T06:39:37;5.10;;;3.50;;
32292;SDS011;43233;48.608;8.838;2023-01-08T06:42:03;7.13;;;4.60;;
32292;SDS011;43233;48.608;8.838;2023-01-08T06:44:28;3.87;;;3.53;;
32292;SDS011;43233;48.608;8.838;2023-01-08T06:46:54;4.33;;;3.93;;
32292;SDS011;43233;48.608;8.838;2023-01-08T06:49:20;5.43;;;4.40;;
32292;SDS011;43233;48.608;8.838;2023-01-08T06:51:46;5.87;;;4.57;;
32292;SDS011;43233;48.608;8.838;2023-01-08T06:54:12;7.57;;;5.27;;
32292;SDS011;43233;48.608;8.838;2023-01-08T06:56:37;9.33;;;5.10;;
32292;SDS011;43233;48.608;8.838;2023-01-08T06:59:04;6.47;;;4.50;;
32292;SDS011;43233;48.608;8.838;2023-01-08T07:01:30;5.97;;;5.10;;
32292;SDS011;43233;48.608;8.838;2023-01-08T07:03:55;9.17;;;4.83;;
32292;SDS011;43233;48.608;8.838;2023-01-08T07:06:21;6.47;;;4.67;;
32292;SDS011;43233;48.608;8.838;2023-01-08T07:08:47;10.43;;;5.37;;
32292;SDS011;43233;48.608;8.838;2023-01-08T07:11:13;4.50;;;4.10;;
32292;SDS011;43233;48.608;8.838;2023-01-08T07:13:39;3.10;;;2.90;;
32292;SDS011;43233;48.608;8.838;2023-01-08T07:16:09;2.50;;;2.30;;
32292;SDS011;43233;48.608;8.838;2023-01-08T07:18:36;2.17;;;2.07;;
32292;SDS011;43233;48.608;8.838;2023-01-08T07:21:03;1.70;;;1.60;;
32292;SDS011;43233;48.608;8.838;2023-01-08T07:23:29;2.53;;;1.97;;
32292;SDS011;43233;48.608;8.838;2023-01-08T07:25:58;2.60;;;2.40;;
32292;SDS011;43233;48.608;8.838;2023-01-08T07:28:24;2.13;;;1.80;;
32292;SDS011;43233;48.608;8.838;2023-01-08T07:30:50;2.17;;;2.00;;
32292;SDS011;43233;48.608;8.838;2023-01-08T07:33:15;3.17;;;1.97;;
32292;SDS011;43233;48.608;8.838;2023-01-08T07:35:41;1.83;;;1.73;;
32292;SDS011;43233;48.608;8.838;2023-01-08T07:38:07;1.80;;;1.70;;
32292;SDS011;43233;48.608;8.838;2023-01-08T07:40:32;1.63;;;1.50;;
32292;SDS011;43233;48.608;8.838;2023-01-08T07:42:59;1.60;;;1.50;;
32292;SDS011;43233;48.608;8.838;2023-01-08T07:45:27;1.60;;;1.50;;
32292;SDS011;43233;48.608;8.838;2023-01-08T07:47:53;1.70;;;1.60;;
32292;SDS011;43233;48.608;8.838;2023-01-08T07:50:20;1.40;;;1.40;;
32292;SDS011;43233;48.608;8.838;2023-01-08T07:52:46;1.80;;;1.70;;
32292;SDS011;43233;48.608;8.838;2023-01-08T07:55:11;1.50;;;1.40;;
32292;SDS011;43233;48.608;8.838;2023-01-08T07:57:37;2.00;;;1.90;;
32292;SDS011;43233;48.608;8.838;2023-01-08T08:00:03;1.40;;;1.40;;
32292;SDS011;43233;48.608;8.838;2023-01-08T08:02:29;2.80;;;1.60;;
32292;SDS011;43233;48.608;8.838;2023-01-08T08:04:54;2.70;;;1.70;;
32292;SDS011;43233;48.608;8.838;2023-01-08T08:07:20;2.50;;;2.30;;
32292;SDS011;43233;48.608;8.838;2023-01-08T08:09:46;3.00;;;2.70;;
32292;SDS011;43233;48.608;8.838;2023-01-08T08:12:11;2.23;;;2.00;;
32292;SDS011;43233;48.608;8.838;2023-01-08T08:14:38;1.77;;;1.67;;
32292;SDS011;43233;48.608;8.838;2023-01-08T08:17:03;2.00;;;1.90;;
32292;SDS011;43233;48.608;8.838;2023-01-08T08:19:29;2.13;;;1.60;;
32292;SDS011;43233;48.608;8.838;2023-01-08T08:21:55;1.60;;;1.50;;
32292;SDS011;43233;48.608;8.838;2023-01-08T08:24:20;1.80;;;1.70;;
32292;SDS011;43233;48.608;8.838;2023-01-08T08:26:46;1.60;;;1.50;;
32292;SDS011;43233;48.608;8.838;2023-01-08T08:29:12;1.90;;;1.80;;
32292;SDS011;43233;48.608;8.838;2023-01-08T08:31:38;1.90;;;1.50;;
32292;SDS011;43233;48.608;8.838;2023-01-08T08:34:03;1.63;;;1.53;;
32292;SDS011;43233;48.608;8.838;2023-01-08T08:36:30;1.97;;;1.77;;
32292;SDS011;43233;48.608;8.838;2023-01-08T08:38:56;4.00;;;2.00;;
32292;SDS011;43233;48.608;8.838;2023-01-08T08:41:22;2.80;;;2.60;;
32292;SDS011;43233;48.608;8.838;2023-01-08T08:43:47;3.33;;;3.03;;
32292;SDS011;43233;48.608;8.838;2023-01-08T08:46:15;3.13;;;2.30;;
32292;SDS011;43233;48.608;8.838;2023-01-08T08:48:42;1.67;;;1.57;;
32292;SDS011;43233;48.608;8.838;2023-01-08T08:51:09;1.47;;;1.47;;
32292;SDS011;43233;48.608;8.838;2023-01-08T08:53:35;3.60;;;2.03;;
32292;SDS011;43233;48.608;8.838;2023-01-08T08:56:01;1.80;;;1.70;;
32292;SDS011;43233;48.608;8.838;2023-01-08T08:58:26;2.00;;;1.80;;
32292;SDS011;43233;48.608;8.838;2023-01-08T09:00:52;2.20;;;2.10;;
32292;SDS011;43233;48.608;8.838;2023-01-08T09:03:18;4.33;;;2.10;;
32292;SDS011;43233;48.608;8.838;2023-01-08T09:05:43;3.00;;;2.17;;
32292;SDS011;43233;48.608;8.838;2023-01-08T09:08:09;2.60;;;2.40;;
32292;SDS011;43233;48.608;8.838;2023-01-08T09:10:36;2.37;;;2.20;;
32292;SDS011;43233;48.608;8.838;2023-01-08T09:13:05;2.83;;;2.63;;
32292;SDS011;43233;48.608;8.838;2023-01-08T09:15:31;3.00;;;2.80;;
32292;SDS011;43233;48.608;8.838;2023-01-08T09:17:56;2.13;;;2.03;;
32292;SDS011;43233;48.608;8.838;2023-01-08T09:20:23;2.23;;;2.03;;
32292;SDS011;43233;48.608;8.838;2023-01-08T09:22:50;1.83;;;1.73;;
32292;SDS011;43233;48.608;8.838;2023-01-08T09:25:16;3.00;;;2.13;;
32292;SDS011;43233;48.608;8.838;2023-01-08T09:27:42;2.03;;;1.90;;
32292;SDS011;43233;48.608;8.838;2023-01-08T09:30:08;2.10;;;2.00;;
32292;SDS011;43233;48.608;8.838;2023-01-08T09:32:34;2.10;;;2.00;;
32292;SDS011;43233;48.608;8.838;2023-01-08T09:34:59;1.70;;;1.60;;
32292;SDS011;43233;48.608;8.838;2023-01-08T09:37:25;1.90;;;1.80;;
32292;SDS011;43233;48.608;8.838;2023-01-08T09:39:51;2.43;;;2.23;;
32292;SDS011;43233;48.608;8.838;2023-01-08T09:42:19;2.60;;;2.03;;
32292;SDS011;43233;48.608;8.838;2023-01-08T09:44:48;2.60;;;2.00;;
32292;SDS011;43233;48.608;8.838;2023-01-08T09:49:46;3.57;;;3.27;;
32292;SDS011;43233;48.608;8.838;2023-01-08T09:52:13;9.53;;;7.60;;
32292;SDS011;43233;48.608;8.838;2023-01-08T09:54:40;3.43;;;3.13;;
32292;SDS011;43233;48.608;8.838;2023-01-08T09:57:09;3.00;;;2.80;;
32292;SDS011;43233;48.608;8.838;2023-01-08T09:59:46;3.20;;;3.00;;
32292;SDS011;43233;48.608;8.838;2023-01-08T10:02:22;2.70;;;2.50;;
32292;SDS011;43233;48.608;8.838;2023-01-08T10:04:53;3.97;;;3.57;;
32292;SDS011;43233;48.608;8.838;2023-01-08T10:07:25;3.17;;;2.87;;
32292;SDS011;43233;48.608;8.838;2023-01-08T10:09:53;2.97;;;2.73;;
32292;SDS011;43233;48.608;8.838;2023-01-08T10:12:27;2.50;;;2.30;;
32292;SDS011;43233;48.608;8.838;2023-01-08T10:14:58;4.73;;;4.37;;
32292;SDS011;43233;48.608;8.838;2023-01-08T10:19:55;6.37;;;5.67;;
32292;SDS011;43233;48.608;8.838;2023-01-08T10:22:24;3.33;;;3.13;;
32292;SDS011;43233;48.608;8.838;2023-01-08T10:25:02;2.70;;;2.50;;
32292;SDS011;43233;48.608;8.838;2023-01-08T10:27:35;3.40;;;3.10;;
32292;SDS011;43233;48.608;8.838;2023-01-08T10:30:13;2.80;;;2.60;;
32292;SDS011;43233;48.608;8.838;2023-01-08T10:32:45;3.50;;;3.00;;
32292;SDS011;43233;48.608;8.838;2023-01-08T10:35:16;3.60;;;2.73;;
32292;SDS011;43233;48.608;8.838;2023-01-08T10:37:45;2.63;;;2.47;;
32292;SDS011;43233;48.608;8.838;2023-01-08T10:43:05;4.03;;;2.20;;
32292;SDS011;43233;48.608;8.838;2023-01-08T10:45:37;2.10;;;2.00;;
32292;SDS011;43233;48.608;8.838;2023-01-08T10:48:04;4.70;;;1.90;;
32292;SDS011;43233;48.608;8.838;2023-01-08T10:50:34;2.60;;;2.40;;
32292;SDS011;43233;48.608;8.838;2023-01-08T10:53:03;2.67;;;2.23;;
32292;SDS011;43233;48.608;8.838;2023-01-08T10:55:34;3.40;;;1.90;;
32292;SDS011;43233;48.608;8.838;2023-01-08T11:00:31;4.90;;;2.70;;
32292;SDS011;43233;48.608;8.838;2023-01-08T11:02:59;2.10;;;2.00;;
32292;SDS011;43233;48.608;8.838;2023-01-08T11:05:30;2.00;;;1.90;;
32292;SDS011;43233;48.608;8.838;2023-01-08T11:07:58;1.80;;;1.70;;
32292;SDS011;43233;48.608;8.838;2023-01-08T11:10:26;4.33;;;2.07;;
32292;SDS011;43233;48.608;8.838;2023-01-08T11:12:54;1.97;;;1.87;;
32292;SDS011;43233;48.608;8.838;2023-01-08T11:15:26;2.00;;;1.90;;
32292;SDS011;43233;48.608;8.838;2023-01-08T11:18:03;2.23;;;2.13;;
32292;SDS011;43233;48.608;8.838;2023-01-08T11:20:38;1.97;;;1.87;;
32292;SDS011;43233;48.608;8.838;2023-01-08T11:23:11;2.63;;;2.10;;
32292;SDS011;43233;48.608;8.838;2023-01-08T11:25:39;2.83;;;2.30;;
32292;SDS011;43233;48.608;8.838;2023-01-08T11:28:14;2.50;;;1.73;;
32292;SDS011;43233;48.608;8.838;2023-01-08T11:30:47;2.37;;;2.23;;
32292;SDS011;43233;48.608;8.838;2023-01-08T11:33:20;2.07;;;1.97;;
32292;SDS011;43233;48.608;8.838;2023-01-08T11:36:33;2.23;;;2.07;;
32292;SDS011;43233;48.608;8.838;2023-01-08T11:38:51;2.10;;;2.00;;
32292;SDS011;43233;48.608;8.838;2023-01-08T11:41:25;1.80;;;1.70;;
32292;SDS011;43233;48.608;8.838;2023-01-08T11:46:41;2.00;;;1.53;;
32292;SDS011;43233;48.608;8.838;2023-01-08T12:10:48;2.00;;;1.90;;
32292;SDS011;43233;48.608;8.838;2023-01-08T12:17:00;2.17;;;2.07;;
32292;SDS011;43233;48.608;8.838;2023-01-08T12:36:26;2.27;;;2.13;;
32292;SDS011;43233;48.608;8.838;2023-01-08T12:38:59;6.07;;;4.10;;
32292;SDS011;43233;48.608;8.838;2023-01-08T12:41:30;3.10;;;2.90;;
32292;SDS011;43233;48.608;8.838;2023-01-08T12:44:02;3.90;;;3.60;;
32292;SDS011;43233;48.608;8.838;2023-01-08T12:46:33;3.17;;;2.20;;
32292;SDS011;43233;48.608;8.838;2023-01-08T12:49:02;2.60;;;2.40;;
32292;SDS011;43233;48.608;8.838;2023-01-08T12:56:51;2.07;;;1.97;;
32292;SDS011;43233;48.608;8.838;2023-01-08T12:59:41;2.70;;;2.37;;
32292;SDS011;43233;48.608;8.838;2023-01-08T13:04:55;2.20;;;2.00;;
32292;SDS011;43233;48.608;8.838;2023-01-08T13:07:40;1.90;;;1.80;;
32292;SDS011;43233;48.608;8.838;2023-01-08T13:10:19;2.20;;;2.03;;
32292;SDS011;43233;48.608;8.838;2023-01-08T13:12:48;2.07;;;1.97;;
32292;SDS011;43233;48.608;8.838;2023-01-08T13:15:18;14.17;;;2.23;;
32292;SDS011;43233;48.608;8.838;2023-01-08T13:17:50;1.83;;;1.73;;
32292;SDS011;43233;48.608;8.838;2023-01-08T13:20:27;2.90;;;2.40;;
32292;SDS011;43233;48.608;8.838;2023-01-08T13:22:56;2.63;;;2.53;;
32292;SDS011;43233;48.608;8.838;2023-01-08T13:27:49;2.80;;;2.60;;
32292;SDS011;43233;48.608;8.838;2023-01-08T13:30:35;2.80;;;2.60;;
32292;SDS011;43233;48.608;8.838;2023-01-08T13:41:40;3.93;;;3.00;;
32292;SDS011;43233;48.608;8.838;2023-01-08T13:44:19;9.57;;;2.97;;
32292;SDS011;43233;48.608;8.838;2023-01-08T13:46:53;2.63;;;2.30;;
32292;SDS011;43233;48.608;8.838;2023-01-08T13:49:33;1.87;;;1.77;;
32292;SDS011;43233;48.608;8.838;2023-01-08T13:52:01;1.80;;;1.70;;
32292;SDS011;43233;48.608;8.838;2023-01-08T13:54:32;1.60;;;1.50;;
32292;SDS011;43233;48.608;8.838;2023-01-08T13:57:02;2.30;;;2.10;;
32292;SDS011;43233;48.608;8.838;2023-01-08T14:02:32;2.17;;;1.97;;
32292;SDS011;43233;48.608;8.838;2023-01-08T14:07:50;1.20;;;1.20;;
32292;SDS011;43233;48.608;8.838;2023-01-08T14:10:16;1.93;;;1.50;;
32292;SDS011;43233;48.608;8.838;2023-01-08T14:12:42;1.60;;;1.50;;
32292;SDS011;43233;48.608;8.838;2023-01-08T14:15:15;2.20;;;1.53;;
32292;SDS011;43233;48.608;8.838;2023-01-08T14:17:46;1.60;;;1.50;;
32292;SDS011;43233;48.608;8.838;2023-01-08T14:20:14;2.27;;;2.17;;
32292;SDS011;43233;48.608;8.838;2023-01-08T14:22:46;1.80;;;1.70;;
32292;SDS011;43233;48.608;8.838;2023-01-08T14:25:13;1.83;;;1.73;;
32292;SDS011;43233;48.608;8.838;2023-01-08T14:27:40;1.67;;;1.57;;
32292;SDS011;43233;48.608;8.838;2023-01-08T14:30:13;2.40;;;2.20;;
32292;SDS011;43233;48.608;8.838;2023-01-08T14:32:42;2.40;;;2.20;;
32292;SDS011;43233;48.608;8.838;2023-01-08T14:35:12;1.70;;;1.60;;
32292;SDS011;43233;48.608;8.838;2023-01-08T14:37:42;1.70;;;1.60;;
32292;SDS011;43233;48.608;8.838;2023-01-08T14:40:14;1.80;;;1.70;;
32292;SDS011;43233;48.608;8.838;2023-01-08T14:42:41;1.93;;;1.83;;
32292;SDS011;43233;48.608;8.838;2023-01-08T14:45:29;1.37;;;1.37;;
32292;SDS011;43233;48.608;8.838;2023-01-08T14:50:39;1.90;;;1.77;;
32292;SDS011;43233;48.608;8.838;2023-01-08T14:53:16;1.70;;;1.60;;
32292;SDS011;43233;48.608;8.838;2023-01-08T14:55:47;2.03;;;1.93;;
32292;SDS011;43233;48.608;8.838;2023-01-08T14:58:16;2.20;;;2.00;;
32292;SDS011;43233;48.608;8.838;2023-01-08T15:00:51;1.70;;;1.60;;
32292;SDS011;43233;48.608;8.838;2023-01-08T15:03:33;2.17;;;2.03;;
32292;SDS011;43233;48.608;8.838;2023-01-08T15:06:01;2.33;;;2.13;;
32292;SDS011;43233;48.608;8.838;2023-01-08T15:08:35;2.00;;;1.90;;
32292;SDS011;43233;48.608;8.838;2023-01-08T15:11:06;2.13;;;2.03;;
32292;SDS011;43233;48.608;8.838;2023-01-08T15:13:44;3.00;;;2.73;;
32292;SDS011;43233;48.608;8.838;2023-01-08T15:18:47;12.10;;;3.53;;
32292;SDS011;43233;48.608;8.838;2023-01-08T15:21:19;2.43;;;2.33;;
32292;SDS011;43233;48.608;8.838;2023-01-08T15:23:47;3.60;;;3.30;;
32292;SDS011;43233;48.608;8.838;2023-01-08T15:26:15;2.43;;;2.23;;
32292;SDS011;43233;48.608;8.838;2023-01-08T15:28:50;4.00;;;2.70;;
32292;SDS011;43233;48.608;8.838;2023-01-08T15:31:22;2.63;;;2.43;;
32292;SDS011;43233;48.608;8.838;2023-01-08T15:33:48;11.83;;;7.93;;
32292;SDS011;43233;48.608;8.838;2023-01-08T15:36:14;8.93;;;5.90;;
32292;SDS011;43233;48.608;8.838;2023-01-08T15:38:39;4.20;;;3.47;;
32292;SDS011;43233;48.608;8.838;2023-01-08T15:41:07;2.90;;;2.70;;
32292;SDS011;43233;48.608;8.838;2023-01-08T15:43:34;2.43;;;2.33;;
32292;SDS011;43233;48.608;8.838;2023-01-08T15:45:59;3.07;;;2.53;;
32292;SDS011;43233;48.608;8.838;2023-01-08T15:48:25;3.10;;;2.47;;
32292;SDS011;43233;48.608;8.838;2023-01-08T15:50:51;2.70;;;2.50;;
32292;SDS011;43233;48.608;8.838;2023-01-08T15:53:20;3.70;;;2.17;;
32292;SDS011;43233;48.608;8.838;2023-01-08T15:55:46;3.67;;;3.17;;
32292;SDS011;43233;48.608;8.838;2023-01-08T15:58:13;4.50;;;3.40;;
32292;SDS011;43233;48.608;8.838;2023-01-08T16:00:40;3.93;;;3.43;;
32292;SDS011;43233;48.608;8.838;2023-01-08T16:03:07;5.80;;;4.50;;
32292;SDS011;43233;48.608;8.838;2023-01-08T16:05:33;6.70;;;6.00;;
32292;SDS011;43233;48.608;8.838;2023-01-08T16:08:00;5.63;;;5.13;;
32292;SDS011;43233;48.608;8.838;2023-01-08T16:10:26;3.67;;;3.37;;
32292;SDS011;43233;48.608;8.838;2023-01-08T16:12:53;3.20;;;2.90;;
32292;SDS011;43233;48.608;8.838;2023-01-08T16:15:19;3.93;;;3.00;;
32292;SDS011;43233;48.608;8.838;2023-01-08T16:17:45;5.03;;;3.70;;
32292;SDS011;43233;48.608;8.838;2023-01-08T16:20:11;3.73;;;3.43;;
32292;SDS011;43233;48.608;8.838;2023-01-08T16:22:38;7.13;;;6.43;;
32292;SDS011;43233;48.608;8.838;2023-01-08T16:25:03;7.70;;;5.87;;
32292;SDS011;43233;48.608;8.838;2023-01-08T16:27:30;4.53;;;4.13;;
32292;SDS011;43233;48.608;8.838;2023-01-08T16:29:57;3.43;;;3.03;;
32292;SDS011;43233;48.608;8.838;2023-01-08T16:32:22;3.50;;;3.20;;
32292;SDS011;43233;48.608;8.838;2023-01-08T16:34:48;5.10;;;4.07;;